createdAt,value
2022-09-05T00:02:39.197Z,99065.00
2022-09-05T00:05:38.522Z,99059.00
2022-09-05T00:08:21.858Z,99062.00
2022-09-05T00:11:16.725Z,99062.00
2022-09-05T00:13:40.665Z,99069.00
2022-09-05T00:16:30.409Z,99058.00
2022-09-05T00:24:19.669Z,99052.00
2022-09-05T00:24:28.686Z,99062.00
2022-09-05T00:25:20.878Z,99062.00
2022-09-05T00:27:47.586Z,99057.00
2022-09-05T00:31:06.907Z,99053.00
2022-09-05T00:33:17.879Z,99059.00
2022-09-05T00:35:57.412Z,99060.00
2022-09-05T00:38:36.893Z,99060.00
2022-09-05T00:41:06.012Z,99073.00
2022-09-05T00:43:34.804Z,99074.00
2022-09-05T00:46:04.220Z,99079.00
2022-09-05T00:48:36.820Z,99078.00
2022-09-05T00:51:13.482Z,99081.00
2022-09-05T00:53:47.914Z,99081.00
2022-09-05T00:56:23.521Z,99078.00
2022-09-05T00:59:23.344Z,99075.00
2022-09-05T01:01:55.012Z,99060.00
2022-09-05T01:04:31.950Z,99076.00
2022-09-05T01:07:08.711Z,99074.00
2022-09-05T01:10:03.996Z,99072.00
2022-09-05T01:12:42.020Z,99071.00
2022-09-05T01:15:24.151Z,99066.00
2022-09-05T01:18:18.992Z,99063.00
2022-09-05T01:20:56.893Z,99069.00
2022-09-05T01:23:49.470Z,99065.00
2022-09-05T01:26:29.977Z,99061.00
2022-09-05T01:29:17.165Z,99075.00
2022-09-05T01:31:55.931Z,99073.00
2022-09-05T01:34:31.846Z,99081.00
2022-09-05T01:37:04.827Z,99082.00
2022-09-05T01:40:14.922Z,99080.00
2022-09-05T01:42:33.545Z,99077.00
2022-09-05T01:45:04.245Z,99075.00
2022-09-05T01:47:42.391Z,99080.00
2022-09-05T01:50:17.061Z,99086.00
2022-09-05T01:53:06.021Z,99082.00
2022-09-05T01:56:04.691Z,99081.00
2022-09-05T01:58:50.600Z,99082.00
2022-09-05T02:01:26.643Z,99074.00
2022-09-05T02:04:22.552Z,99080.00
2022-09-05T02:06:55.789Z,99081.00
2022-09-05T02:10:01.175Z,99089.00
2022-09-05T02:12:36.494Z,99086.00
2022-09-05T02:15:06.183Z,99076.00
2022-09-05T02:17:50.960Z,99077.00
2022-09-05T02:20:23.731Z,99084.00
2022-09-05T02:22:55.704Z,99080.00
2022-09-05T02:26:02.451Z,99072.00
2022-09-05T02:28:16.197Z,99069.00
2022-09-05T02:31:19.241Z,99072.00
2022-09-05T02:33:37.079Z,99075.00
2022-09-05T02:36:07.220Z,99068.00
2022-09-05T02:44:39.470Z,99068.00
2022-09-05T02:45:19.111Z,99076.00
2022-09-05T02:45:21.089Z,99073.00
2022-09-05T02:47:12.677Z,99069.00
2022-09-05T02:50:55.799Z,99062.00
2022-09-05T02:57:29.586Z,99061.00
2022-09-05T02:57:37.799Z,99068.00
2022-09-05T02:58:26.220Z,99070.00
2022-09-05T03:00:56.873Z,99060.00
2022-09-05T03:03:28.693Z,99063.00
2022-09-05T03:06:00.665Z,99067.00
2022-09-05T03:08:48.617Z,99056.00
2022-09-05T03:11:55.474Z,99053.00
2022-09-05T03:15:00.008Z,99066.00
2022-09-05T03:17:45.532Z,99064.00
2022-09-05T03:20:53.176Z,99056.00
2022-09-05T03:23:45.958Z,99051.00
2022-09-05T03:26:51.379Z,99054.00
2022-09-05T03:30:08.474Z,99060.00
2022-09-05T03:33:17.635Z,99055.00
2022-09-05T03:36:08.874Z,99057.00
2022-09-05T03:39:12.938Z,99061.00
2022-09-05T03:41:59.413Z,99053.00
2022-09-05T03:44:35.060Z,99048.00
2022-09-05T03:47:21.604Z,99041.00
2022-09-05T03:52:48.503Z,99041.00
2022-09-05T03:57:13.650Z,99044.00
2022-09-05T03:57:24.631Z,99037.00
2022-09-05T03:59:25.489Z,99033.00
2022-09-05T04:03:21.582Z,99033.00
2022-09-05T04:08:15.901Z,99032.00
2022-09-05T04:08:20.856Z,99040.00
2022-09-05T04:10:29.569Z,99033.00
2022-09-05T04:13:02.136Z,99033.00
2022-09-05T04:15:34.475Z,99031.00
2022-09-05T04:18:05.101Z,99032.00
2022-09-05T04:20:40.564Z,99036.00
2022-09-05T04:23:14.181Z,99037.00
2022-09-05T04:25:56.894Z,99017.00
2022-09-05T04:28:48.876Z,99051.00
2022-09-05T04:31:27.352Z,99055.00
2022-09-05T04:34:01.531Z,99061.00
2022-09-05T04:36:34.062Z,99050.00
2022-09-05T04:39:10.440Z,99062.00
2022-09-05T04:41:41.154Z,99059.00
2022-09-05T04:44:13.038Z,99068.00
2022-09-05T04:46:47.857Z,99070.00
2022-09-05T04:49:17.941Z,99076.00
2022-09-05T04:52:01.251Z,99075.00
2022-09-05T04:54:32.948Z,99074.00
2022-09-05T04:57:05.401Z,99079.00
2022-09-05T05:05:36.507Z,99085.00
2022-09-05T05:06:08.356Z,99084.00
2022-09-05T05:06:13.325Z,99076.00
2022-09-05T05:08:17.256Z,99074.00
2022-09-05T05:14:21.642Z,99081.00
2022-09-05T05:18:06.381Z,99086.00
2022-09-05T05:18:12.787Z,99085.00
2022-09-05T05:19:40.985Z,99090.00
2022-09-05T05:22:14.916Z,99096.00
2022-09-05T05:24:44.314Z,99093.00
2022-09-05T05:27:17.452Z,99088.00
2022-09-05T05:29:47.631Z,99098.00
2022-09-05T05:32:31.720Z,99105.00
2022-09-05T05:35:10.281Z,99105.00
2022-09-05T05:37:40.866Z,99104.00
2022-09-05T05:40:11.480Z,99107.00
2022-09-05T05:42:40.440Z,99111.00
2022-09-05T05:45:10.731Z,99117.00
2022-09-05T05:47:46.136Z,99122.00
2022-09-05T05:50:19.748Z,99121.00
2022-09-05T05:53:01.220Z,99117.00
2022-09-05T05:55:56.889Z,99117.00
2022-09-05T05:58:33.811Z,99111.00
2022-09-05T06:01:50.215Z,99112.00
2022-09-05T06:04:54.886Z,99121.00
2022-09-05T06:07:26.858Z,99114.00
2022-09-05T06:14:50.578Z,99111.00
2022-09-05T06:15:02.948Z,99113.00
2022-09-05T06:16:57.494Z,99122.00
2022-09-05T06:21:38.923Z,99128.00
2022-09-05T06:23:06.991Z,99131.00
2022-09-05T06:25:57.420Z,99130.00
2022-09-05T06:28:33.096Z,99131.00
2022-09-05T06:31:29.871Z,99141.00
2022-09-05T06:34:27.913Z,99138.00
2022-09-05T06:37:00.103Z,99135.00
2022-09-05T06:39:40.074Z,99144.00
2022-09-05T06:42:40.637Z,99153.00
2022-09-05T06:45:28.907Z,99140.00
2022-09-05T06:48:00.030Z,99139.00
2022-09-05T06:50:54.631Z,99144.00
2022-09-05T06:53:35.363Z,99149.00
2022-09-05T06:56:11.013Z,99152.00
2022-09-05T06:59:30.542Z,99147.00
2022-09-05T07:02:01.701Z,99146.00
2022-09-05T07:05:24.573Z,99147.00
2022-09-05T07:07:25.064Z,99151.00
2022-09-05T07:09:59.121Z,99152.00
2022-09-05T07:12:30.258Z,99151.00
2022-09-05T07:15:09.330Z,99145.00
2022-09-05T07:18:09.032Z,99146.00
2022-09-05T07:21:17.438Z,99146.00
2022-09-05T07:24:07.062Z,99144.00
2022-09-05T07:26:43.394Z,99141.00
2022-09-05T07:29:12.274Z,99147.00
2022-09-05T07:31:43.118Z,99149.00
2022-09-05T07:34:20.786Z,99143.00
2022-09-05T07:37:14.043Z,99156.00
2022-09-05T07:40:25.419Z,99153.00
2022-09-05T07:43:09.054Z,99147.00
2022-09-05T07:46:14.273Z,99152.00
2022-09-05T07:48:58.269Z,99139.00
2022-09-05T07:56:48.824Z,99142.00
2022-09-05T07:57:50.222Z,99146.00
2022-09-05T08:00:37.033Z,99145.00
2022-09-05T08:03:37.594Z,99146.00
2022-09-05T08:06:46.419Z,99142.00
2022-09-05T08:10:06.856Z,99141.00
2022-09-05T08:12:33.125Z,99142.00
2022-09-05T08:15:27.868Z,99142.00
2022-09-05T08:18:27.663Z,99152.00
2022-09-05T08:21:16.848Z,99142.00
2022-09-05T08:24:12.876Z,99140.00
2022-09-05T08:26:48.304Z,99141.00
2022-09-05T08:29:41.309Z,99147.00
2022-09-05T08:32:11.480Z,99143.00
2022-09-05T08:34:47.296Z,99136.00
2022-09-05T08:37:26.517Z,99130.00
2022-09-05T08:40:10.368Z,99133.00
2022-09-05T08:42:55.780Z,99140.00
2022-09-05T08:46:41.284Z,99134.00
2022-09-05T08:49:21.471Z,99126.00
2022-09-05T08:52:07.890Z,99131.00
2022-09-05T08:54:46.251Z,99118.00
2022-09-05T08:57:28.218Z,99134.00
2022-09-05T09:00:20.330Z,99118.00
2022-09-05T09:03:07.002Z,99124.00
2022-09-05T09:06:15.841Z,99118.00
2022-09-05T09:09:05.532Z,99124.00
2022-09-05T09:11:47.203Z,99118.00
2022-09-05T09:14:45.728Z,99115.00
2022-09-05T09:17:50.792Z,99114.00
2022-09-05T09:20:45.052Z,99110.00
2022-09-05T09:23:32.017Z,99101.00
2022-09-05T09:26:21.088Z,99108.00
2022-09-05T09:29:20.424Z,99101.00
2022-09-05T09:32:12.319Z,99093.00
2022-09-05T09:35:28.915Z,99106.00
2022-09-05T09:38:13.930Z,99100.00
2022-09-05T09:41:25.776Z,99092.00
2022-09-05T09:44:22.928Z,99094.00
2022-09-05T09:47:16.292Z,99091.00
2022-09-05T09:50:12.522Z,99084.00
2022-09-05T09:53:03.819Z,99086.00
2022-09-05T09:55:50.938Z,99086.00
2022-09-05T09:58:47.060Z,99086.00
2022-09-05T10:01:53.570Z,99079.00
2022-09-05T10:10:34.661Z,99083.00
2022-09-05T10:10:51.339Z,99076.00
2022-09-05T10:14:51.079Z,99081.00
2022-09-05T10:17:49.858Z,99070.00
2022-09-05T10:21:15.023Z,99078.00
2022-09-05T10:24:10.239Z,99071.00
2022-09-05T10:27:00.827Z,99064.00
2022-09-05T10:29:52.689Z,99059.00
2022-09-05T10:35:11.771Z,99055.00
2022-09-05T10:35:24.127Z,99047.00
2022-09-05T10:38:15.242Z,99054.00
2022-09-05T10:41:20.867Z,99052.00
2022-09-05T10:43:59.566Z,99041.00
2022-09-05T10:46:51.507Z,99043.00
2022-09-05T10:49:30.687Z,99038.00
2022-09-05T10:52:20.467Z,99032.00
2022-09-05T10:55:14.030Z,99024.00
2022-09-05T10:58:01.696Z,99032.00
2022-09-05T11:02:20.472Z,99016.00
2022-09-05T11:04:12.492Z,99021.00
2022-09-05T11:07:06.879Z,99011.00
2022-09-05T11:10:01.968Z,99004.00
2022-09-05T11:12:44.676Z,98994.00
2022-09-05T11:15:32.291Z,99001.00
2022-09-05T11:18:15.835Z,98992.00
2022-09-05T11:21:09.657Z,98994.00
2022-09-05T11:23:40.785Z,98996.00
2022-09-05T11:26:40.500Z,98995.00
2022-09-05T11:29:19.701Z,98991.00
2022-09-05T11:33:01.766Z,98986.00
2022-09-05T11:39:59.857Z,98995.00
2022-09-05T11:40:02.118Z,98987.00
2022-09-05T11:42:17.925Z,98980.00
2022-09-05T11:45:09.522Z,98975.00
2022-09-05T11:48:08.247Z,98991.00
2022-09-05T11:51:33.467Z,98989.00
2022-09-05T11:54:31.470Z,98985.00
2022-09-05T11:57:33.272Z,98985.00
2022-09-05T12:00:32.155Z,98988.00
2022-09-05T12:04:03.696Z,98984.00
2022-09-05T12:07:30.390Z,98992.00
2022-09-05T12:10:46.220Z,98991.00
2022-09-05T12:13:49.065Z,98987.00
2022-09-05T12:19:29.630Z,98975.00
2022-09-05T12:22:26.993Z,98983.00
2022-09-05T12:27:36.979Z,98975.00
2022-09-05T12:29:27.477Z,98977.00
2022-09-05T12:33:49.167Z,98968.00
2022-09-05T12:36:11.564Z,98966.00
2022-09-05T12:40:28.808Z,98963.00
2022-09-05T12:41:38.702Z,98966.00
2022-09-05T12:44:42.524Z,98954.00
2022-09-05T12:47:19.437Z,98951.00
2022-09-05T12:50:14.852Z,98947.00
2022-09-05T12:52:52.166Z,98956.00
2022-09-05T12:55:31.282Z,98948.00
2022-09-05T13:02:57.166Z,98949.00
2022-09-05T13:03:07.313Z,98936.00
2022-09-05T13:04:18.399Z,98938.00
2022-09-05T13:06:57.146Z,98929.00
2022-09-05T13:11:03.821Z,98928.00
2022-09-05T13:14:54.431Z,98915.00
2022-09-05T13:16:03.760Z,98914.00
2022-09-05T13:18:54.041Z,98917.00
2022-09-05T13:21:30.151Z,98911.00
2022-09-05T13:24:10.404Z,98903.00
2022-09-05T13:26:47.097Z,98898.00
2022-09-05T13:29:35.121Z,98899.00
2022-09-05T13:38:01.200Z,98898.00
2022-09-05T13:38:10.557Z,98893.00
2022-09-05T13:38:50.426Z,98886.00
2022-09-05T13:41:30.348Z,98888.00
2022-09-05T13:44:27.601Z,98890.00
2022-09-05T13:47:28.761Z,98895.00
2022-09-05T13:50:19.659Z,98879.00
2022-09-05T13:53:03.514Z,98883.00
2022-09-05T13:55:50.348Z,98880.00
2022-09-05T13:58:42.812Z,98871.00
2022-09-05T14:01:57.082Z,98873.00
2022-09-05T14:05:06.621Z,98869.00
2022-09-05T14:08:19.815Z,98865.00
2022-09-05T14:11:15.428Z,98855.00
2022-09-05T14:14:14.252Z,98854.00
2022-09-05T14:16:53.611Z,98855.00
2022-09-05T14:19:45.688Z,98847.00
2022-09-05T14:22:34.690Z,98851.00
2022-09-05T14:25:21.044Z,98851.00
2022-09-05T14:28:00.085Z,98846.00
2022-09-05T14:33:39.662Z,98849.00
2022-09-05T14:37:41.619Z,98835.00
2022-09-05T14:37:52.529Z,98838.00
2022-09-05T14:40:29.307Z,98841.00
2022-09-05T14:43:27.545Z,98827.00
2022-09-05T14:46:17.725Z,98832.00
2022-09-05T14:49:07.250Z,98831.00
2022-09-05T14:51:58.400Z,98819.00
2022-09-05T15:02:48.153Z,98822.00
2022-09-05T15:02:53.945Z,98823.00
2022-09-05T15:06:38.806Z,98817.00
2022-09-05T15:12:17.766Z,98823.00
2022-09-05T15:12:33.288Z,98815.00
2022-09-05T15:15:20.353Z,98819.00
2022-09-05T15:17:51.856Z,98825.00
2022-09-05T15:20:40.392Z,98806.00
2022-09-05T15:23:40.170Z,98826.00
2022-09-05T15:26:25.706Z,98817.00
2022-09-05T15:29:28.935Z,98814.00
2022-09-05T15:32:18.554Z,98819.00
2022-09-05T15:34:50.372Z,98811.00
2022-09-05T15:37:50.859Z,98807.00
2022-09-05T15:40:24.454Z,98810.00
2022-09-05T15:42:57.141Z,98810.00
2022-09-05T15:45:30.685Z,98805.00
2022-09-05T15:48:09.102Z,98806.00
2022-09-05T15:51:00.592Z,98806.00
2022-09-05T15:53:51.754Z,98806.00
2022-09-05T15:56:33.530Z,98810.00
2022-09-05T15:59:10.146Z,98808.00
2022-09-05T16:02:01.174Z,98811.00
2022-09-05T16:10:27.037Z,98800.00
2022-09-05T16:10:39.495Z,98795.00
2022-09-05T16:10:56.100Z,98796.00
2022-09-05T16:13:36.747Z,98804.00
2022-09-05T16:23:11.475Z,98786.00
2022-09-05T16:23:18.434Z,98786.00
2022-09-05T16:23:26.015Z,98795.00
2022-09-05T16:25:10.194Z,98786.00
2022-09-05T16:27:58.428Z,98799.00
2022-09-05T16:30:46.571Z,98793.00
2022-09-05T16:33:18.204Z,98786.00
2022-09-05T16:35:58.512Z,98785.00
2022-09-05T16:38:49.708Z,98782.00
2022-09-05T16:41:26.118Z,98788.00
2022-09-05T16:44:00.813Z,98777.00
2022-09-05T16:46:35.323Z,98776.00
2022-09-05T16:49:11.815Z,98776.00
2022-09-05T16:51:50.331Z,98777.00
2022-09-05T16:54:27.865Z,98777.00
2022-09-05T16:57:03.345Z,98778.00
2022-09-05T16:59:37.101Z,98779.00
2022-09-05T17:02:15.886Z,98776.00
2022-09-05T17:05:13.705Z,98769.00
2022-09-05T17:08:15.108Z,98762.00
2022-09-05T17:10:57.257Z,98762.00
2022-09-05T17:13:42.371Z,98764.00
2022-09-05T17:16:22.307Z,98766.00
2022-09-05T17:18:55.467Z,98762.00
2022-09-05T17:22:33.595Z,98766.00
2022-09-05T17:29:19.368Z,98759.00
2022-09-05T17:29:26.227Z,98763.00
2022-09-05T17:33:19.678Z,98756.00
2022-09-05T17:36:08.643Z,98757.00
2022-09-05T17:38:53.250Z,98762.00
2022-09-05T17:41:54.347Z,98759.00
2022-09-05T17:44:28.452Z,98770.00
2022-09-05T17:47:16.183Z,98759.00
2022-09-05T17:50:11.659Z,98755.00
2022-09-05T17:53:25.747Z,98755.00
2022-09-05T17:56:32.524Z,98752.00
2022-09-05T17:59:30.978Z,98764.00
2022-09-05T18:02:33.660Z,98764.00
2022-09-05T18:05:14.943Z,98757.00
2022-09-05T18:08:08.561Z,98767.00
2022-09-05T18:11:14.110Z,98757.00
2022-09-05T18:14:01.466Z,98767.00
2022-09-05T18:17:35.374Z,98766.00
2022-09-05T18:20:06.607Z,98762.00
2022-09-05T18:22:41.074Z,98773.00
2022-09-05T18:25:30.711Z,98778.00
2022-09-05T18:28:15.211Z,98784.00
2022-09-05T18:30:45.142Z,98780.00
2022-09-05T18:33:55.057Z,98776.00
2022-09-05T18:36:52.894Z,98774.00
2022-09-05T18:39:49.426Z,98781.00
2022-09-05T18:42:33.703Z,98784.00
2022-09-05T18:45:33.486Z,98785.00
2022-09-05T18:48:13.512Z,98788.00
2022-09-05T18:50:46.410Z,98783.00
2022-09-05T18:53:15.803Z,98782.00
2022-09-05T18:56:11.205Z,98786.00
2022-09-05T18:59:09.944Z,98798.00
2022-09-05T19:01:56.711Z,98779.00
2022-09-05T19:04:41.641Z,98785.00
2022-09-05T19:07:22.533Z,98796.00
2022-09-05T19:13:13.527Z,98791.00
2022-09-05T19:15:53.388Z,98796.00
2022-09-05T19:19:10.006Z,98794.00
2022-09-05T19:21:46.608Z,98793.00
2022-09-05T19:24:39.431Z,98807.00
2022-09-05T19:28:13.946Z,98800.00
2022-09-05T19:36:46.203Z,98793.00
2022-09-05T19:36:51.772Z,98785.00
2022-09-05T19:37:27.506Z,98786.00
2022-09-05T19:46:17.059Z,98792.00
2022-09-05T19:47:36.397Z,98794.00
2022-09-05T19:47:39.459Z,98798.00
2022-09-05T19:48:40.058Z,98796.00
2022-09-05T19:51:27.072Z,98779.00
2022-09-05T19:54:12.487Z,98781.00
2022-09-05T19:56:51.597Z,98788.00
2022-09-05T19:59:34.403Z,98784.00
2022-09-05T20:02:14.145Z,98786.00
2022-09-05T20:04:53.334Z,98773.00
2022-09-05T20:07:28.585Z,98781.00
2022-09-05T20:10:07.852Z,98775.00
2022-09-05T20:12:50.607Z,98770.00
2022-09-05T20:15:27.549Z,98772.00
2022-09-05T20:18:30.654Z,98768.00
2022-09-05T20:21:06.769Z,98763.00
2022-09-05T20:23:41.622Z,98766.00
2022-09-05T20:26:16.131Z,98771.00
2022-09-05T20:28:54.820Z,98771.00
2022-09-05T20:31:28.682Z,98771.00
2022-09-05T20:34:36.984Z,98766.00
2022-09-05T20:43:18.586Z,98773.00
2022-09-05T20:43:23.236Z,98774.00
2022-09-05T20:43:35.093Z,98779.00
2022-09-05T20:47:23.470Z,98780.00
2022-09-05T20:54:14.454Z,98779.00
2022-09-05T20:54:22.373Z,98776.00
2022-09-05T20:55:40.032Z,98768.00
2022-09-05T20:58:17.345Z,98773.00
2022-09-05T21:01:19.861Z,98770.00
2022-09-05T21:03:57.749Z,98773.00
2022-09-05T21:06:36.657Z,98788.00
2022-09-05T21:09:24.468Z,98785.00
2022-09-05T21:12:12.637Z,98784.00
2022-09-05T21:15:31.735Z,98794.00
2022-09-05T21:18:09.759Z,98781.00
2022-09-05T21:20:43.358Z,98778.00
2022-09-05T21:23:37.083Z,98778.00
2022-09-05T21:26:23.022Z,98786.00
2022-09-05T21:29:10.935Z,98777.00
2022-09-05T21:31:57.448Z,98777.00
2022-09-05T21:34:45.073Z,98787.00
2022-09-05T21:37:19.730Z,98785.00
2022-09-05T21:39:58.269Z,98782.00
2022-09-05T21:45:38.498Z,98775.00
2022-09-05T21:47:43.876Z,98776.00
2022-09-05T21:48:27.232Z,98792.00
2022-09-05T21:51:02.849Z,98791.00
2022-09-05T21:58:02.133Z,98794.00
2022-09-05T21:59:17.640Z,98788.00
2022-09-05T21:59:52.376Z,98805.00
2022-09-05T22:02:26.086Z,98794.00
2022-09-05T22:05:03.647Z,98793.00
2022-09-05T22:07:43.948Z,98797.00
2022-09-05T22:10:19.822Z,98794.00
2022-09-05T22:12:56.341Z,98798.00
2022-09-05T22:15:34.735Z,98786.00
2022-09-05T22:18:17.682Z,98791.00
2022-09-05T22:21:32.470Z,98802.00
2022-09-05T22:23:54.225Z,98788.00
2022-09-05T22:26:30.135Z,98773.00
2022-09-05T22:29:06.263Z,98782.00
2022-09-05T22:31:36.898Z,98782.00
2022-09-05T22:34:28.299Z,98775.00
2022-09-05T22:37:00.928Z,98774.00
2022-09-05T22:39:36.959Z,98791.00
2022-09-05T22:42:12.588Z,98781.00
2022-09-05T22:44:50.330Z,98780.00
2022-09-05T22:47:30.030Z,98766.00
2022-09-05T22:50:06.671Z,98781.00
2022-09-05T22:52:39.903Z,98764.00
2022-09-05T22:55:17.094Z,98760.00
2022-09-05T22:57:49.209Z,98767.00
2022-09-05T23:00:25.882Z,98762.00
2022-09-05T23:03:16.183Z,98762.00
2022-09-05T23:05:59.912Z,98769.00
2022-09-05T23:08:38.481Z,98764.00
2022-09-05T23:11:18.562Z,98776.00
2022-09-05T23:14:03.087Z,98765.00
2022-09-05T23:16:38.958Z,98760.00
2022-09-05T23:19:12.765Z,98756.00
2022-09-05T23:21:50.257Z,98755.00
2022-09-05T23:24:29.235Z,98759.00
2022-09-05T23:27:04.986Z,98754.00
2022-09-05T23:29:49.535Z,98755.00
2022-09-05T23:32:26.476Z,98754.00
2022-09-05T23:35:08.654Z,98754.00
2022-09-05T23:37:45.803Z,98758.00
2022-09-05T23:40:26.008Z,98753.00
2022-09-05T23:43:13.420Z,98754.00
2022-09-05T23:45:54.239Z,98756.00
2022-09-05T23:48:26.874Z,98761.00
2022-09-05T23:51:07.411Z,98750.00
2022-09-05T23:53:38.545Z,98748.00
2022-09-05T23:56:15.649Z,98746.00
2022-09-05T23:58:52.252Z,98746.00
